Time;durP1;ratioP1;P1;durP2;ratioP2;P2;SDS_P1;SDS_P2;PMS_P1;PMS_P2;Temp;Humidity;BMP_temperature;BMP_pressure;BME280_temperature;BME280_humidity;BME280_pressure;Samples;Min_cycle;Max_cycle;Signal;HPM_P1;HPM_P2
2024/01/08 00:01:47;;;;;;;10.75;5.47;;;-2.70;99.90;;;;;;5075045;28;20044;-70
2024/01/08 00:04:13;;;;;;;10.20;5.57;;;-2.70;99.90;;;;;;5058306;28;20032;-70
2024/01/08 00:06:39;;;;;;;10.88;5.80;;;-2.70;99.90;;;;;;5074875;28;20051;-70
2024/01/08 00:09:05;;;;;;;10.48;6.25;;;-2.70;99.90;;;;;;5058261;28;20488;-69
2024/01/08 00:11:30;;;;;;;9.98;6.18;;;-2.70;99.90;;;;;;5058316;28;20032;-69
2024/01/08 00:13:56;;;;;;;10.43;5.82;;;-2.70;99.90;;;;;;5058343;28;20058;-69
2024/01/08 00:16:22;;;;;;;9.98;5.80;;;-2.70;99.90;;;;;;5042040;28;20492;-70
2024/01/08 00:18:48;;;;;;;9.20;6.03;;;-2.70;99.90;;;;;;5075301;28;20036;-69
2024/01/08 00:21:13;;;;;;;10.73;5.30;;;-2.70;99.90;;;;;;5074724;28;20072;-69
2024/01/08 00:23:39;;;;;;;9.85;5.70;;;-2.60;99.90;;;;;;5041898;28;20031;-70
2024/01/08 00:26:05;;;;;;;9.25;5.25;;;-2.60;99.90;;;;;;5074784;28;20043;-70
2024/01/08 00:28:31;;;;;;;8.75;4.60;;;-2.60;99.90;;;;;;5074616;28;20036;-69
2024/01/08 00:30:57;;;;;;;10.23;6.00;;;-2.50;99.90;;;;;;5075285;28;20042;-69
2024/01/08 00:33:22;;;;;;;11.25;5.43;;;-2.70;99.90;;;;;;5074753;28;20036;-69
2024/01/08 00:35:48;;;;;;;10.35;5.88;;;-2.70;99.90;;;;;;5074654;28;20492;-69
2024/01/08 00:38:14;;;;;;;11.73;6.07;;;-2.70;99.90;;;;;;5074721;28;20542;-70
2024/01/08 00:40:39;;;;;;;9.82;5.35;;;-2.70;99.90;;;;;;5058112;28;20492;-69
2024/01/08 00:43:05;;;;;;;10.35;5.60;;;-2.60;99.90;;;;;;5058143;28;20138;-69
2024/01/08 00:45:32;;;;;;;9.45;5.60;;;-2.60;99.90;;;;;;5057868;28;20085;-70
2024/01/08 00:47:57;;;;;;;9.52;5.65;;;-2.60;99.90;;;;;;5074806;28;20040;-69
2024/01/08 00:50:23;;;;;;;10.05;5.88;;;-2.60;99.90;;;;;;5057759;28;20042;-69
2024/01/08 00:52:49;;;;;;;10.98;5.88;;;-2.50;99.90;;;;;;5057846;28;20408;-70
2024/01/08 00:55:15;;;;;;;11.20;5.95;;;-2.50;99.90;;;;;;5057891;28;20528;-69
2024/01/08 00:57:40;;;;;;;12.38;6.00;;;-2.50;99.90;;;;;;5074831;28;20035;-70
2024/01/08 01:00:08;;;;;;;11.23;5.97;;;-2.40;99.90;;;;;;5057713;28;20036;-69
2024/01/08 01:02:34;;;;;;;10.68;6.18;;;-2.40;99.90;;;;;;5074391;28;20066;-70
2024/01/08 01:05:00;;;;;;;10.77;6.55;;;-2.40;99.90;;;;;;5057848;28;20079;-69
2024/01/08 01:07:27;;;;;;;11.05;6.18;;;-2.30;99.90;;;;;;5070760;28;20487;-69
2024/01/08 01:09:53;;;;;;;11.30;6.70;;;-2.30;99.90;;;;;;5038100;28;20431;-70
2024/01/08 01:12:19;;;;;;;10.30;6.50;;;-2.30;99.90;;;;;;5054352;28;20045;-69
2024/01/08 01:14:45;;;;;;;9.98;5.88;;;-2.20;99.90;;;;;;5037785;28;20452;-69
2024/01/08 01:17:11;;;;;;;9.18;5.78;;;-2.30;99.90;;;;;;5054293;28;20049;-69
2024/01/08 01:19:37;;;;;;;11.93;5.85;;;-2.20;99.90;;;;;;5021575;28;20476;-69
2024/01/08 01:22:03;;;;;;;11.93;6.30;;;-2.20;99.90;;;;;;5070894;28;20072;-69
2024/01/08 01:24:28;;;;;;;10.75;5.43;;;-2.30;99.90;;;;;;5037757;28;20041;-69
2024/01/08 01:26:54;;;;;;;12.02;6.18;;;-2.20;99.90;;;;;;5054154;28;20094;-69
2024/01/08 01:29:20;;;;;;;10.35;5.47;;;-2.20;99.90;;;;;;5037975;28;20055;-69
2024/01/08 01:31:46;;;;;;;10.80;6.60;;;-2.20;99.90;;;;;;5070901;28;20048;-70
2024/01/08 01:34:12;;;;;;;10.45;5.90;;;-2.20;99.90;;;;;;5037802;28;20047;-70
2024/01/08 01:36:39;;;;;;;12.07;6.57;;;-2.20;99.90;;;;;;5054375;28;20033;-69
2024/01/08 01:39:05;;;;;;;13.35;6.70;;;-2.20;99.90;;;;;;5037475;28;20041;-69
2024/01/08 01:41:32;;;;;;;10.80;6.32;;;-2.10;99.90;;;;;;5037331;28;20072;-70
2024/01/08 01:43:58;;;;;;;11.95;6.82;;;-2.10;99.90;;;;;;5054443;28;20051;-70
2024/01/08 01:46:45;;;;;;;11.68;6.50;;;-2.10;99.90;;;;;;5037788;28;20036;-70
2024/01/08 01:49:15;;;;;;;9.60;5.60;;;-2.00;99.90;;;;;;5037315;28;20049;-70
2024/01/08 01:51:45;;;;;;;11.02;6.55;;;-2.00;99.90;;;;;;5055738;28;20036;-70
2024/01/08 01:54:16;;;;;;;10.90;6.50;;;-2.00;99.90;;;;;;5024729;28;20082;-69
2024/01/08 01:56:46;;;;;;;10.43;5.70;;;-1.90;99.90;;;;;;5057553;28;20041;-70
2024/01/08 01:59:15;;;;;;;11.80;6.72;;;-1.90;99.90;;;;;;5057383;28;20098;-70
2024/01/08 02:01:41;;;;;;;11.88;6.63;;;-1.90;99.90;;;;;;5041126;28;20067;-69
2024/01/08 02:04:08;;;;;;;11.68;7.50;;;-1.90;99.90;;;;;;5040803;28;20044;-70
2024/01/08 02:06:35;;;;;;;12.35;7.25;;;-1.80;99.90;;;;;;5057340;28;20089;-70
2024/01/08 02:09:02;;;;;;;13.82;7.07;;;-1.80;99.90;;;;;;5056956;28;20094;-70
2024/01/08 02:11:29;;;;;;;12.38;7.32;;;-1.80;99.90;;;;;;5060755;28;20048;-70
2024/01/08 02:13:55;;;;;;;12.20;7.47;;;-1.80;99.90;;;;;;5077377;28;20047;-71
2024/01/08 02:16:21;;;;;;;13.02;7.03;;;-1.80;99.90;;;;;;5060703;28;20458;-70
2024/01/08 02:18:47;;;;;;;12.07;7.30;;;-1.80;99.90;;;;;;5077207;28;20044;-70
2024/01/08 02:21:12;;;;;;;12.77;7.65;;;-1.80;99.90;;;;;;5060567;28;20522;-69
2024/01/08 02:23:38;;;;;;;13.32;7.25;;;-1.70;99.90;;;;;;5060352;28;20508;-70
2024/01/08 02:26:05;;;;;;;13.10;7.80;;;-1.70;99.90;;;;;;5077206;28;20472;-70
2024/01/08 02:28:31;;;;;;;14.10;8.20;;;-1.70;99.90;;;;;;5060359;28;20077;-70
2024/01/08 02:30:56;;;;;;;12.60;6.95;;;-1.70;99.90;;;;;;5059868;28;20082;-70
2024/01/08 02:33:22;;;;;;;11.65;7.25;;;-1.70;99.90;;;;;;5076932;28;20047;-70
2024/01/08 02:35:48;;;;;;;12.43;7.22;;;-1.60;99.90;;;;;;5060108;28;20051;-70
2024/01/08 02:38:14;;;;;;;12.18;7.50;;;-1.60;99.90;;;;;;5059905;28;20044;-70
2024/01/08 02:40:43;;;;;;;12.80;7.63;;;-1.60;99.90;;;;;;5076680;28;20044;-70
2024/01/08 02:43:09;;;;;;;14.55;7.53;;;-1.60;99.90;;;;;;5060152;28;20075;-70
2024/01/08 02:45:35;;;;;;;12.60;7.65;;;-1.60;99.90;;;;;;5076629;28;20121;-70
2024/01/08 02:48:00;;;;;;;12.88;8.48;;;-1.60;99.90;;;;;;5076685;28;20036;-69
2024/01/08 02:50:26;;;;;;;13.25;8.05;;;-1.50;99.90;;;;;;5076477;28;20047;-70
2024/01/08 02:52:52;;;;;;;12.02;7.90;;;-1.60;99.90;;;;;;5076469;28;20043;-70
2024/01/08 02:55:18;;;;;;;13.88;7.93;;;-1.60;99.90;;;;;;5026897;28;20122;-70
2024/01/08 02:57:44;;;;;;;12.45;7.85;;;-1.50;99.90;;;;;;5043260;28;20551;-70
2024/01/08 03:00:10;;;;;;;13.15;7.50;;;-1.50;99.90;;;;;;5059344;28;20119;-70
2024/01/08 03:02:36;;;;;;;13.60;7.68;;;-1.50;99.90;;;;;;5058470;28;20040;-69
2024/01/08 03:05:02;;;;;;;14.57;8.70;;;-1.50;99.90;;;;;;5076218;28;20032;-70
2024/01/08 03:07:28;;;;;;;11.75;7.68;;;-1.50;99.90;;;;;;5076298;28;20101;-70
2024/01/08 03:09:57;;;;;;;12.88;8.02;;;-1.50;99.90;;;;;;5042828;28;20035;-71
2024/01/08 03:12:23;;;;;;;11.75;7.18;;;-1.40;99.90;;;;;;5076418;28;20508;-70
2024/01/08 03:14:48;;;;;;;11.93;6.90;;;-1.40;99.90;;;;;;5076360;28;20629;-70
2024/01/08 03:17:14;;;;;;;12.13;6.63;;;-1.30;99.90;;;;;;5043000;28;20051;-70
2024/01/08 03:19:40;;;;;;;11.30;6.85;;;-1.20;99.90;;;;;;5059553;28;20043;-70
2024/01/08 03:22:06;;;;;;;11.80;7.18;;;-1.30;99.90;;;;;;5075968;28;20396;-70
2024/01/08 03:24:32;;;;;;;10.68;6.72;;;-1.30;99.90;;;;;;5059272;28;20089;-70
2024/01/08 03:26:58;;;;;;;11.18;6.90;;;-1.30;99.90;;;;;;5075648;28;20044;-69
2024/01/08 03:29:24;;;;;;;12.18;7.53;;;-1.20;99.90;;;;;;5076054;28;20101;-70
2024/01/08 03:31:49;;;;;;;12.23;7.38;;;-1.10;99.90;;;;;;5075934;28;20086;-70
2024/01/08 03:34:15;;;;;;;12.40;7.68;;;-1.10;99.90;;;;;;5076111;28;20040;-70
2024/01/08 03:36:48;;;;;;;11.98;6.85;;;-1.20;99.90;;;;;;5075606;28;20050;-70
2024/01/08 03:39:17;;;;;;;10.50;6.50;;;-1.20;99.90;;;;;;5075584;28;20055;-70
2024/01/08 03:41:44;;;;;;;12.15;7.20;;;-1.20;99.90;;;;;;5075429;28;20044;-70
2024/01/08 03:44:10;;;;;;;9.30;4.80;;;-1.20;99.90;;;;;;5075453;28;20044;-70
2024/01/08 03:46:39;;;;;;;10.98;6.85;;;-1.20;99.90;;;;;;5075487;28;20089;-70
2024/01/08 03:49:06;;;;;;;10.07;6.38;;;-1.20;99.90;;;;;;5075458;28;20039;-70
2024/01/08 03:51:33;;;;;;;11.20;6.70;;;-1.20;99.90;;;;;;5058985;28;20040;-70
2024/01/08 03:53:59;;;;;;;11.25;5.68;;;-1.20;99.90;;;;;;5058798;28;20547;-70
2024/01/08 03:56:25;;;;;;;11.07;6.20;;;-1.20;99.90;;;;;;5058786;28;20123;-70
2024/01/08 03:58:50;;;;;;;11.00;6.22;;;-1.20;99.90;;;;;;5075359;28;20139;-70
2024/01/08 04:01:16;;;;;;;11.02;6.88;;;-1.20;99.90;;;;;;5025465;28;20512;-70
2024/01/08 04:03:42;;;;;;;11.52;6.05;;;-1.20;99.90;;;;;;5075576;28;20153;-70
2024/01/08 04:06:08;;;;;;;10.80;6.68;;;-1.20;99.90;;;;;;5075222;28;20036;-70
2024/01/08 04:08:34;;;;;;;11.05;6.53;;;-1.20;99.90;;;;;;5058298;28;20047;-70
2024/01/08 04:11:00;;;;;;;10.15;5.65;;;-1.20;99.90;;;;;;5075096;28;20134;-70
2024/01/08 04:13:26;;;;;;;9.25;5.55;;;-1.20;99.90;;;;;;5058089;28;20144;-70
2024/01/08 04:15:52;;;;;;;9.35;5.40;;;-1.20;99.90;;;;;;5074848;28;20050;-70
2024/01/08 04:18:17;;;;;;;9.73;5.47;;;-1.20;99.90;;;;;;5058698;28;20035;-70
2024/01/08 04:20:43;;;;;;;9.60;5.50;;;-1.20;99.90;;;;;;5041859;28;20047;-70
2024/01/08 04:23:09;;;;;;;9.05;5.53;;;-1.20;99.90;;;;;;5041592;28;20040;-70
2024/01/08 04:25:35;;;;;;;9.57;5.60;;;-1.20;99.90;;;;;;5074876;28;20031;-70
2024/01/08 04:28:01;;;;;;;9.18;5.30;;;-1.20;99.90;;;;;;5074865;28;20078;-70
2024/01/08 04:30:27;;;;;;;9.32;5.13;;;-1.20;99.90;;;;;;5041753;28;20036;-70
2024/01/08 04:32:53;;;;;;;8.63;5.20;;;-1.20;99.90;;;;;;5057811;28;20127;-70
2024/01/08 04:35:19;;;;;;;8.50;4.95;;;-1.30;99.90;;;;;;5075004;28;20048;-70
2024/01/08 04:37:44;;;;;;;9.30;4.72;;;-1.30;99.90;;;;;;5074544;28;20089;-69
2024/01/08 04:40:10;;;;;;;8.70;5.15;;;-1.30;99.90;;;;;;5074616;28;20039;-70
2024/01/08 04:42:36;;;;;;;7.93;4.20;;;-1.30;99.90;;;;;;5074668;28;20044;-70
2024/01/08 04:45:03;;;;;;;8.23;4.65;;;-1.20;99.90;;;;;;5075176;28;20488;-70
2024/01/08 04:47:29;;;;;;;8.55;4.70;;;-1.30;99.90;;;;;;5074919;28;20075;-70
2024/01/08 04:49:54;;;;;;;9.27;4.85;;;-1.30;99.90;;;;;;5041258;28;20087;-70
2024/01/08 04:52:20;;;;;;;8.98;4.82;;;-1.30;99.90;;;;;;5074479;28;20066;-70
2024/01/08 04:54:46;;;;;;;8.48;4.38;;;-1.30;99.90;;;;;;5074839;28;20054;-70
2024/01/08 04:57:12;;;;;;;7.50;4.22;;;-1.30;99.90;;;;;;5058225;28;20074;-70
2024/01/08 04:59:42;;;;;;;8.10;4.72;;;-1.30;99.90;;;;;;5058228;28;20067;-68
2024/01/08 05:02:11;;;;;;;8.80;5.00;;;-1.30;99.90;;;;;;5074532;28;20465;-68
2024/01/08 05:04:36;;;;;;;9.95;4.78;;;-1.20;99.90;;;;;;5057980;28;20036;-68
2024/01/08 05:07:03;;;;;;;9.00;4.88;;;-1.40;99.90;;;;;;5057453;28;20127;-68
2024/01/08 05:09:30;;;;;;;9.85;4.82;;;-1.40;99.90;;;;;;5074585;28;20044;-69
2024/01/08 05:11:57;;;;;;;9.23;5.18;;;-1.40;99.90;;;;;;5058193;28;20377;-70
2024/01/08 05:14:22;;;;;;;9.52;5.60;;;-1.40;99.90;;;;;;5057503;28;20105;-69
2024/01/08 05:16:48;;;;;;;8.90;5.80;;;-1.40;99.90;;;;;;5040937;28;20040;-69
2024/01/08 05:19:14;;;;;;;10.93;6.00;;;-1.40;99.90;;;;;;5057626;28;20044;-69
2024/01/08 05:21:40;;;;;;;10.15;5.25;;;-1.50;99.90;;;;;;5040958;28;20079;-69
2024/01/08 05:24:07;;;;;;;10.68;6.65;;;-1.40;99.90;;;;;;5074303;28;20079;-69
2024/01/08 05:26:33;;;;;;;9.55;5.85;;;-1.50;99.90;;;;;;5059326;28;20127;-70
2024/01/08 05:28:59;;;;;;;11.52;5.72;;;-1.50;99.90;;;;;;5061442;28;20495;-70
2024/01/08 05:31:25;;;;;;;9.35;5.55;;;-1.50;99.90;;;;;;5078013;28;20040;-69
2024/01/08 05:33:51;;;;;;;10.27;5.97;;;-1.50;99.90;;;;;;5078339;28;20480;-70
2024/01/08 05:36:17;;;;;;;10.77;5.78;;;-1.50;99.90;;;;;;5078052;28;20048;-69
2024/01/08 05:38:42;;;;;;;10.35;5.72;;;-1.50;99.90;;;;;;5077708;28;20492;-69
2024/01/08 05:41:08;;;;;;;11.02;6.47;;;-1.50;99.90;;;;;;5061171;28;20126;-69
2024/01/08 05:43:37;;;;;;;7.72;4.28;;;-1.50;99.90;;;;;;5061438;28;20040;-69
2024/01/08 05:46:07;;;;;;;14.00;4.45;;;-1.50;99.90;;;;;;5061656;28;20051;-69
2024/01/08 05:48:37;;;;;;;11.88;6.13;;;-1.50;99.90;;;;;;5096124;28;20043;-69
2024/01/08 05:51:04;;;;;;;8.77;4.20;;;-1.50;99.90;;;;;;5078079;28;20392;-69
2024/01/08 05:53:31;;;;;;;10.75;6.20;;;-1.50;99.90;;;;;;5044601;28;20039;-70
2024/01/08 05:55:57;;;;;;;10.23;6.25;;;-1.50;99.90;;;;;;5060916;28;20040;-69
2024/01/08 05:58:23;;;;;;;11.32;6.07;;;-1.60;99.90;;;;;;5044486;28;20101;-69
2024/01/08 06:00:49;;;;;;;12.25;7.30;;;-1.60;99.90;;;;;;5077793;28;20059;-69
2024/01/08 06:03:15;;;;;;;12.88;7.68;;;-1.60;99.90;;;;;;5077688;28;20035;-69
2024/01/08 06:05:41;;;;;;;10.82;6.53;;;-1.60;99.90;;;;;;5060794;28;20606;-69
2024/01/08 06:08:08;;;;;;;11.55;7.07;;;-1.60;99.90;;;;;;5077326;28;20048;-69
2024/01/08 06:10:34;;;;;;;14.30;9.20;;;-1.60;99.90;;;;;;5044235;28;20042;-69
2024/01/08 06:13:00;;;;;;;12.75;7.30;;;-1.60;99.90;;;;;;5077590;28;20040;-69
2024/01/08 06:15:26;;;;;;;11.30;6.03;;;-1.70;99.90;;;;;;5060908;28;20043;-69
2024/01/08 06:17:51;;;;;;;11.57;6.70;;;-1.60;99.90;;;;;;5077143;28;20039;-69
2024/01/08 06:20:17;;;;;;;12.05;6.93;;;-1.60;99.90;;;;;;5077381;28;20040;-69
2024/01/08 06:22:43;;;;;;;16.10;10.25;;;-1.60;99.90;;;;;;5077102;28;20039;-69
2024/01/08 06:25:09;;;;;;;13.07;7.32;;;-1.60;99.90;;;;;;5077123;28;20051;-69
2024/01/08 06:27:34;;;;;;;21.63;15.32;;;-1.60;99.90;;;;;;5077071;28;20047;-69
2024/01/08 06:30:00;;;;;;;13.93;8.93;;;-1.60;99.90;;;;;;5076847;28;20119;-69
2024/01/08 06:32:26;;;;;;;14.82;8.90;;;-1.60;99.90;;;;;;5060210;28;20044;-69
2024/01/08 06:34:52;;;;;;;13.25;8.10;;;-1.60;99.90;;;;;;5076802;28;20040;-69
2024/01/08 06:37:17;;;;;;;12.73;7.68;;;-1.60;99.90;;;;;;5076541;28;20055;-69
2024/01/08 06:39:43;;;;;;;16.55;8.27;;;-1.60;99.90;;;;;;5076651;28;20048;-69
2024/01/08 06:42:09;;;;;;;13.18;7.55;;;-1.60;99.90;;;;;;5060157;28;20044;-69
2024/01/08 06:44:35;;;;;;;11.75;7.18;;;-1.60;99.90;;;;;;5043445;28;20107;-69
2024/01/08 06:47:01;;;;;;;13.98;6.80;;;-1.60;99.90;;;;;;5076567;28;20058;-69
2024/01/08 06:49:27;;;;;;;12.77;7.65;;;-1.60;99.90;;;;;;5076639;28;20036;-69
2024/01/08 06:51:52;;;;;;;12.82;8.02;;;-1.60;99.90;;;;;;5060118;28;20476;-69
2024/01/08 06:54:18;;;;;;;14.10;7.25;;;-1.50;99.90;;;;;;5076878;28;20044;-69
2024/01/08 06:56:44;;;;;;;11.27;7.30;;;-1.60;99.90;;;;;;5059892;28;20094;-69
2024/01/08 06:59:10;;;;;;;12.27;7.22;;;-1.60;99.90;;;;;;5077101;28;20109;-69
2024/01/08 07:01:36;;;;;;;13.55;7.60;;;-1.50;99.90;;;;;;5076337;28;20408;-69
2024/01/08 07:04:02;;;;;;;13.80;7.57;;;-1.50;99.90;;;;;;5076290;28;20036;-69
2024/01/08 07:06:28;;;;;;;12.60;7.25;;;-1.50;99.90;;;;;;5059830;28;20416;-69
2024/01/08 07:08:54;;;;;;;10.98;6.88;;;-1.50;99.90;;;;;;5059416;28;20131;-69
2024/01/08 07:11:24;;;;;;;13.13;7.85;;;-1.50;99.90;;;;;;5059835;28;20054;-69
2024/01/08 07:13:50;;;;;;;12.40;7.43;;;-1.50;99.90;;;;;;5059489;28;20051;-68
2024/01/08 07:16:17;;;;;;;12.13;7.38;;;-1.50;99.90;;;;;;5076429;28;20546;-69
2024/01/08 07:18:43;;;;;;;13.18;6.95;;;-1.50;99.90;;;;;;5076408;28;20396;-70
2024/01/08 07:21:09;;;;;;;13.48;8.05;;;-1.40;99.90;;;;;;5075854;28;20130;-71
2024/01/08 07:23:36;;;;;;;14.27;7.72;;;-1.40;99.90;;;;;;5059575;28;20469;-70
2024/01/08 07:26:02;;;;;;;13.48;7.18;;;-1.40;99.90;;;;;;5075855;28;20051;-71
2024/01/08 07:28:28;;;;;;;12.18;6.90;;;-1.40;99.90;;;;;;5059270;28;20036;-70
2024/01/08 07:30:55;;;;;;;11.90;6.97;;;-1.40;99.90;;;;;;5075784;28;20129;-71
2024/01/08 07:33:23;;;;;;;7.95;3.42;;;-1.40;99.90;;;;;;5059171;28;20044;-71
2024/01/08 07:35:49;;;;;;;12.55;6.32;;;-1.30;99.90;;;;;;5076016;28;20492;-71
2024/01/08 07:38:15;;;;;;;12.95;6.80;;;-1.30;99.90;;;;;;5059252;28;20043;-70
2024/01/08 07:40:41;;;;;;;13.70;8.40;;;-1.30;99.90;;;;;;5075821;28;20075;-70
2024/01/08 07:43:06;;;;;;;12.23;6.80;;;-1.30;99.90;;;;;;5059027;28;20483;-70
2024/01/08 07:45:32;;;;;;;19.20;11.90;;;-1.30;99.90;;;;;;5059214;28;20036;-71
2024/01/08 07:47:58;;;;;;;11.77;7.20;;;-1.30;99.90;;;;;;5075398;28;20071;-71
2024/01/08 07:50:25;;;;;;;9.00;4.55;;;-1.20;99.90;;;;;;5058299;28;20044;-70
2024/01/08 07:52:51;;;;;;;11.35;6.07;;;-1.30;99.90;;;;;;5075702;28;20036;-70
2024/01/08 07:55:17;;;;;;;10.75;5.32;;;-1.20;99.90;;;;;;5075669;28;20040;-70
2024/01/08 07:57:43;;;;;;;13.40;6.00;;;-1.10;99.90;;;;;;5058689;28;20076;-71
2024/01/08 08:00:11;;;;;;;11.10;6.10;;;-1.10;99.90;;;;;;5059030;28;20044;-70
2024/01/08 08:02:40;;;;;;;10.93;5.70;;;-1.10;99.90;;;;;;5058629;28;20048;-70
2024/01/08 08:05:07;;;;;;;9.27;5.55;;;-1.10;99.90;;;;;;5058715;28;20067;-70
2024/01/08 08:07:35;;;;;;;9.10;5.40;;;-1.10;99.90;;;;;;5074799;28;20059;-70
2024/01/08 08:10:01;;;;;;;10.65;4.57;;;-1.10;99.90;;;;;;5075420;28;20489;-71
2024/01/08 08:12:27;;;;;;;10.35;5.40;;;-1.00;99.90;;;;;;5058343;28;20039;-70
2024/01/08 08:14:53;;;;;;;9.02;5.18;;;-1.00;99.90;;;;;;5058456;28;20043;-70
2024/01/08 08:17:19;;;;;;;9.38;5.00;;;-1.00;99.90;;;;;;5058370;28;20062;-70
2024/01/08 08:19:45;;;;;;;8.52;4.45;;;-0.90;99.90;;;;;;5058467;28;20048;-70
2024/01/08 08:22:11;;;;;;;7.72;4.57;;;-0.90;99.90;;;;;;5058376;28;20040;-71
2024/01/08 08:24:41;;;;;;;10.18;4.53;;;-0.90;99.90;;;;;;5075018;28;20463;-70
2024/01/08 08:27:10;;;;;;;8.52;5.10;;;-0.80;99.90;;;;;;5075124;28;20128;-70
2024/01/08 08:29:45;;;;;;;7.95;4.53;;;-0.80;99.90;;;;;;5074875;28;20153;-70
2024/01/08 08:32:11;;;;;;;9.95;4.85;;;-0.80;99.90;;;;;;5074872;28;20043;-71
2024/01/08 08:34:37;;;;;;;11.48;4.78;;;-0.80;99.90;;;;;;5074822;28;20138;-70
2024/01/08 08:37:03;;;;;;;9.85;4.82;;;-0.80;99.90;;;;;;5058332;28;20131;-71
2024/01/08 08:39:29;;;;;;;10.80;4.88;;;-0.70;99.90;;;;;;5041452;28;20139;-69
2024/01/08 08:41:57;;;;;;;9.02;4.57;;;-0.80;99.90;;;;;;5074709;28;20151;-69
2024/01/08 08:44:23;;;;;;;9.45;4.90;;;-0.80;99.90;;;;;;5058418;28;20062;-69
2024/01/08 08:46:50;;;;;;;7.45;2.47;;;-0.80;99.90;;;;;;5057869;28;20119;-69
2024/01/08 08:49:16;;;;;;;7.95;3.55;;;-0.70;99.90;;;;;;5074691;28;20068;-70
2024/01/08 08:51:43;;;;;;;9.07;4.80;;;-0.70;99.90;;;;;;5057815;28;20071;-71
2024/01/08 08:54:08;;;;;;;7.93;4.53;;;-0.70;99.90;;;;;;5074662;28;20048;-71
2024/01/08 08:56:34;;;;;;;9.60;4.53;;;-0.80;99.90;;;;;;5057788;28;20403;-71
2024/01/08 08:59:00;;;;;;;10.68;4.65;;;-0.70;99.90;;;;;;5058188;28;20123;-71
2024/01/08 09:01:29;;;;;;;11.73;4.32;;;-0.70;99.90;;;;;;5077717;28;20058;-71
2024/01/08 09:03:55;;;;;;;10.02;4.80;;;-0.70;99.90;;;;;;5062016;28;20043;-71
2024/01/08 09:06:24;;;;;;;9.40;4.75;;;-0.70;99.90;;;;;;5061738;28;20549;-71
2024/01/08 09:08:53;;;;;;;6.25;2.47;;;-0.60;99.90;;;;;;5078282;28;20116;-70
2024/01/08 09:11:20;;;;;;;10.55;5.00;;;-0.60;99.90;;;;;;5078339;28;20056;-70
2024/01/08 09:13:47;;;;;;;5.97;2.35;;;-0.70;99.90;;;;;;5045024;28;20072;-71
2024/01/08 09:16:14;;;;;;;7.28;3.65;;;-0.60;99.90;;;;;;5078618;28;20069;-70
2024/01/08 09:18:43;;;;;;;10.32;4.45;;;-0.60;99.90;;;;;;5062028;28;20492;-71
2024/01/08 09:21:10;;;;;;;9.82;4.20;;;-0.60;99.90;;;;;;5078205;28;20047;-71
2024/01/08 09:23:36;;;;;;;11.65;4.93;;;-0.60;99.90;;;;;;5078371;28;20503;-71
2024/01/08 09:26:04;;;;;;;11.20;5.20;;;-0.60;99.90;;;;;;5078526;28;20392;-71
2024/01/08 09:28:30;;;;;;;7.20;3.90;;;-0.60;99.90;;;;;;5078137;28;20051;-71
2024/01/08 09:30:56;;;;;;;7.78;3.50;;;-0.50;99.90;;;;;;5078293;28;20040;-70
2024/01/08 09:33:22;;;;;;;12.02;5.10;;;-0.50;99.90;;;;;;5078109;28;20040;-71
2024/01/08 09:35:48;;;;;;;9.90;4.80;;;-0.50;99.90;;;;;;5061428;28;20142;-70
2024/01/08 09:38:14;;;;;;;9.65;4.28;;;-0.50;99.90;;;;;;5078221;28;20480;-70
2024/01/08 09:40:43;;;;;;;8.30;4.18;;;-0.50;99.90;;;;;;5077961;28;20119;-71
2024/01/08 09:43:14;;;;;;;9.30;4.30;;;-0.50;99.90;;;;;;5078150;28;20488;-71
2024/01/08 09:45:57;;;;;;;8.00;4.43;;;-0.50;99.90;;;;;;5078202;28;20075;-70
2024/01/08 09:48:24;;;;;;;6.47;2.85;;;-0.50;99.90;;;;;;5078068;28;20044;-71
2024/01/08 09:50:51;;;;;;;8.25;3.85;;;-0.40;99.90;;;;;;5061265;28;20050;-71
2024/01/08 09:53:17;;;;;;;8.50;4.22;;;-0.40;99.90;;;;;;5061155;28;20392;-70
2024/01/08 09:55:44;;;;;;;7.75;4.40;;;-0.50;99.90;;;;;;5028280;28;20392;-71
2024/01/08 09:58:10;;;;;;;10.30;4.72;;;-0.50;99.90;;;;;;5077602;28;20044;-71
2024/01/08 10:00:36;;;;;;;10.80;4.50;;;-0.40;99.90;;;;;;5060981;28;20093;-69
2024/01/08 10:03:02;;;;;;;8.52;4.18;;;-0.40;99.90;;;;;;5077766;28;20046;-69
2024/01/08 10:05:28;;;;;;;9.00;4.88;;;-0.30;99.90;;;;;;5044102;28;20123;-69
2024/01/08 10:07:54;;;;;;;9.73;4.70;;;-0.30;99.90;;;;;;5044326;28;20056;-69
2024/01/08 10:10:22;;;;;;;8.80;4.28;;;-0.30;99.90;;;;;;5060237;28;20047;-69
2024/01/08 10:12:51;;;;;;;9.05;4.13;;;-0.30;99.90;;;;;;5076705;28;20093;-69
2024/01/08 10:15:18;;;;;;;7.38;3.97;;;-0.30;99.90;;;;;;5060937;28;20044;-69
2024/01/08 10:17:48;;;;;;;5.28;2.55;;;-0.30;99.90;;;;;;5077129;28;20054;-69
2024/01/08 10:20:15;;;;;;;9.88;4.57;;;-0.20;99.90;;;;;;5077307;28;20123;-69
2024/01/08 10:22:41;;;;;;;8.93;4.50;;;-0.20;99.90;;;;;;5077211;28;20040;-69
2024/01/08 10:25:07;;;;;;;10.20;5.20;;;-0.30;99.90;;;;;;5027927;28;20032;-69
2024/01/08 10:27:33;;;;;;;9.15;4.00;;;-0.20;99.90;;;;;;5060356;28;20519;-69
2024/01/08 10:29:59;;;;;;;8.23;4.13;;;-0.30;99.90;;;;;;5060353;28;20075;-69
2024/01/08 10:32:25;;;;;;;6.05;3.00;;;-0.20;99.90;;;;;;5077063;28;20044;-69
2024/01/08 10:34:51;;;;;;;4.90;2.53;;;-0.20;99.90;;;;;;5060284;28;20097;-69
2024/01/08 10:37:18;;;;;;;8.30;3.78;;;-0.10;99.90;;;;;;5060266;28;20043;-69
2024/01/08 10:39:47;;;;;;;8.30;3.58;;;-0.10;99.90;;;;;;5076819;28;20046;-69
2024/01/08 10:42:13;;;;;;;7.25;3.15;;;-0.20;99.90;;;;;;5060386;28;20048;-69
2024/01/08 10:44:40;;;;;;;7.50;3.67;;;-0.10;99.90;;;;;;5059791;28;20104;-69
2024/01/08 10:47:09;;;;;;;8.43;3.85;;;-0.10;99.90;;;;;;5076798;28;20036;-69
2024/01/08 10:49:38;;;;;;;7.32;3.92;;;-0.10;99.90;;;;;;5060488;28;20048;-69
2024/01/08 10:52:24;;;;;;;8.00;4.00;;;0.10;99.90;;;;;;5076755;28;20070;-68
2024/01/08 10:54:58;;;;;;;9.55;3.95;;;0.00;99.90;;;;;;5076526;28;20040;-68
2024/01/08 10:57:51;;;;;;;8.88;4.40;;;0.10;99.90;;;;;;5076496;28;20044;-69
2024/01/08 11:00:18;;;;;;;7.90;3.35;;;0.00;99.90;;;;;;5060034;28;20400;-68
2024/01/08 11:02:45;;;;;;;6.80;3.22;;;0.00;99.90;;;;;;5059595;28;20051;-68
2024/01/08 11:05:13;;;;;;;7.35;3.28;;;0.00;99.90;;;;;;5076432;28;20093;-69
2024/01/08 11:07:41;;;;;;;7.65;3.92;;;0.10;99.90;;;;;;5059418;28;20059;-69
2024/01/08 11:10:09;;;;;;;7.97;4.40;;;0.10;99.90;;;;;;5076711;28;20127;-71
2024/01/08 11:12:42;;;;;;;8.90;4.10;;;0.00;99.90;;;;;;5076079;28;20035;-71
2024/01/08 11:15:09;;;;;;;7.63;3.67;;;0.00;99.90;;;;;;5076166;28;20116;-71
2024/01/08 11:17:35;;;;;;;7.55;4.18;;;-0.10;99.90;;;;;;5076047;28;20096;-71
2024/01/08 11:20:05;;;;;;;7.90;3.92;;;-0.10;99.90;;;;;;5076078;28;20131;-71
2024/01/08 11:22:33;;;;;;;7.97;3.53;;;-0.10;99.90;;;;;;5059908;28;20174;-70
2024/01/08 11:24:59;;;;;;;8.95;3.90;;;0.00;99.90;;;;;;5058613;28;20506;-71
2024/01/08 11:27:25;;;;;;;5.90;2.88;;;0.00;99.90;;;;;;5076132;28;20035;-71
2024/01/08 11:29:58;;;;;;;6.72;3.45;;;0.10;99.90;;;;;;5075792;28;20046;-71
2024/01/08 11:32:53;;;;;;;9.27;4.00;;;0.20;99.90;;;;;;5059216;28;20039;-71
2024/01/08 11:35:20;;;;;;;8.63;4.18;;;0.10;99.90;;;;;;5071123;28;20129;-70
2024/01/08 11:38:08;;;;;;;8.05;4.07;;;0.10;99.90;;;;;;5075947;28;20458;-70
2024/01/08 11:40:34;;;;;;;6.63;3.15;;;0.10;99.90;;;;;;5075713;28;20049;-71
2024/01/08 11:43:01;;;;;;;6.72;3.38;;;0.10;99.90;;;;;;5059246;28;20396;-70
2024/01/08 11:45:28;;;;;;;7.28;2.85;;;0.20;99.90;;;;;;5059349;28;20071;-70
2024/01/08 11:47:54;;;;;;;7.35;4.32;;;0.10;99.90;;;;;;5059181;28;20048;-70
2024/01/08 11:50:20;;;;;;;7.80;3.50;;;0.10;99.90;;;;;;5075716;28;20035;-71
2024/01/08 11:52:48;;;;;;;7.93;4.40;;;0.10;99.90;;;;;;5042515;28;20032;-71
2024/01/08 11:55:14;;;;;;;7.30;3.85;;;0.10;99.90;;;;;;5075893;28;20047;-71
2024/01/08 11:57:40;;;;;;;8.48;3.58;;;0.00;99.90;;;;;;5075215;28;20044;-71
2024/01/08 12:00:18;;;;;;;7.53;3.90;;;0.00;99.90;;;;;;5058838;28;20119;-71
2024/01/08 12:02:45;;;;;;;6.53;2.78;;;-0.10;99.90;;;;;;5058627;28;20040;-70
2024/01/08 12:05:11;;;;;;;7.20;2.80;;;-0.10;99.90;;;;;;5075486;28;20438;-71
2024/01/08 12:07:41;;;;;;;9.70;3.80;;;0.00;99.90;;;;;;5074840;28;20052;-71
2024/01/08 12:10:08;;;;;;;8.25;4.32;;;0.00;99.90;;;;;;5074957;28;20048;-70
2024/01/08 12:12:35;;;;;;;4.38;1.88;;;-0.20;99.90;;;;;;5075265;28;20048;-72
2024/01/08 12:15:01;;;;;;;5.55;2.95;;;-0.10;99.90;;;;;;5075031;28;20101;-71
2024/01/08 12:17:27;;;;;;;7.40;3.22;;;-0.10;99.90;;;;;;5075361;28;20476;-71
2024/01/08 12:19:55;;;;;;;8.27;3.80;;;-0.20;99.90;;;;;;5058421;28;20048;-68
2024/01/08 12:22:23;;;;;;;5.15;2.05;;;-0.30;99.90;;;;;;5074921;28;20152;-68
2024/01/08 12:24:51;;;;;;;7.53;4.05;;;-0.30;99.90;;;;;;5075032;28;20225;-68
2024/01/08 12:27:19;;;;;;;7.07;3.75;;;-0.30;99.90;;;;;;5074992;28;20051;-68
2024/01/08 12:29:46;;;;;;;6.30;2.90;;;-0.30;99.90;;;;;;5074861;28;20044;-68
2024/01/08 12:32:17;;;;;;;7.25;3.65;;;-0.20;99.90;;;;;;5058191;28;20055;-68
2024/01/08 12:34:43;;;;;;;7.40;3.30;;;-0.10;99.90;;;;;;5057832;28;20140;-68
2024/01/08 12:37:11;;;;;;;7.13;3.75;;;-0.10;99.90;;;;;;5074802;28;20106;-68
2024/01/08 12:39:38;;;;;;;8.43;4.13;;;-0.20;99.90;;;;;;5075026;28;20032;-68
2024/01/08 12:42:12;;;;;;;7.80;3.38;;;-0.20;99.90;;;;;;5074522;28;20073;-68